createdAt,value
2018-04-22T00:02:27.695Z,57.11
2018-04-22T00:04:56.090Z,57.38
2018-04-22T00:07:24.785Z,57.03
2018-04-22T00:09:53.117Z,57.63
2018-04-22T00:12:21.493Z,58.42
2018-04-22T00:14:49.836Z,58.83
2018-04-22T00:17:18.146Z,58.32
2018-04-22T00:19:46.523Z,58.96
2018-04-22T00:22:14.914Z,59.56
2018-04-22T00:24:43.252Z,59.12
2018-04-22T00:27:11.581Z,59.17
2018-04-22T00:29:39.953Z,59.33
2018-04-22T00:32:08.278Z,59.65
2018-04-22T00:34:36.654Z,59.60
2018-04-22T00:37:05.054Z,61.19
2018-04-22T00:39:33.458Z,60.94
2018-04-22T00:42:01.848Z,61.71
2018-04-22T00:44:30.170Z,60.82
2018-04-22T00:46:58.601Z,60.85
2018-04-22T00:49:26.918Z,61.26
2018-04-22T00:51:55.354Z,62.66
2018-04-22T00:54:23.674Z,62.90
2018-04-22T00:56:52.102Z,62.38
2018-04-22T00:59:20.458Z,62.74
2018-04-22T01:01:48.870Z,62.53
2018-04-22T01:04:17.198Z,61.88
2018-04-22T01:06:45.542Z,63.52
2018-04-22T01:09:13.896Z,62.94
2018-04-22T01:11:42.281Z,63.07
2018-04-22T01:14:10.606Z,64.10
2018-04-22T01:16:38.950Z,63.57
2018-04-22T01:19:07.309Z,64.24
2018-04-22T01:21:35.672Z,63.61
2018-04-22T01:24:04.000Z,64.06
2018-04-22T01:26:32.315Z,64.07
2018-04-22T01:29:00.724Z,64.59
2018-04-22T01:31:29.103Z,64.06
2018-04-22T01:33:57.453Z,64.24
2018-04-22T01:36:25.855Z,63.61
2018-04-22T01:38:54.242Z,63.61
2018-04-22T01:41:22.561Z,64.05
2018-04-22T01:43:50.910Z,63.74
2018-04-22T01:46:19.239Z,64.21
2018-04-22T01:48:47.643Z,64.14
2018-04-22T01:51:15.967Z,65.00
2018-04-22T01:53:44.401Z,64.67
2018-04-22T01:56:12.785Z,63.97
2018-04-22T01:58:41.135Z,64.77
2018-04-22T02:01:09.542Z,64.18
2018-04-22T02:03:37.896Z,64.50
2018-04-22T02:06:06.296Z,64.97
2018-04-22T02:08:34.676Z,64.43
2018-04-22T02:11:03.004Z,64.24
2018-04-22T02:13:32.042Z,64.27
2018-04-22T02:16:00.396Z,64.59
2018-04-22T02:18:28.722Z,65.89
2018-04-22T02:20:57.065Z,66.47
2018-04-22T02:23:25.457Z,66.26
2018-04-22T02:25:53.801Z,65.70
2018-04-22T02:28:22.121Z,66.16
2018-04-22T02:30:50.474Z,65.81
2018-04-22T02:33:18.793Z,65.67
2018-04-22T02:35:47.134Z,65.25
2018-04-22T02:38:15.517Z,64.99
2018-04-22T02:40:43.905Z,64.73
2018-04-22T02:43:12.216Z,65.54
2018-04-22T02:45:40.617Z,65.28
2018-04-22T02:48:08.919Z,64.85
2018-04-22T02:50:37.266Z,65.00
2018-04-22T02:53:05.681Z,66.42
2018-04-22T02:55:34.069Z,65.55
2018-04-22T02:58:02.440Z,66.07
2018-04-22T03:00:30.810Z,65.79
2018-04-22T03:02:59.157Z,66.22
2018-04-22T03:05:27.585Z,66.84
2018-04-22T03:07:56.013Z,66.27
2018-04-22T03:10:25.318Z,65.53
2018-04-22T03:12:53.736Z,66.32
2018-04-22T03:15:22.121Z,65.45
2018-04-22T03:17:50.473Z,66.26
2018-04-22T03:20:18.833Z,66.96
2018-04-22T03:22:47.237Z,66.10
2018-04-22T03:25:15.557Z,65.63
2018-04-22T03:27:43.910Z,66.24
2018-04-22T03:30:12.234Z,67.06
2018-04-22T03:32:40.678Z,67.21
2018-04-22T03:35:09.037Z,67.53
2018-04-22T03:37:37.374Z,67.81
2018-04-22T03:40:05.797Z,68.23
2018-04-22T03:42:34.200Z,68.35
2018-04-22T03:45:02.566Z,68.98
2018-04-22T03:47:30.914Z,69.17
2018-04-22T03:49:59.228Z,69.48
2018-04-22T03:52:27.595Z,69.83
2018-04-22T03:54:55.922Z,69.00
2018-04-22T03:57:24.356Z,68.64
2018-04-22T03:59:52.704Z,68.22
2018-04-22T04:02:21.052Z,67.71
2018-04-22T04:04:49.370Z,67.76
2018-04-22T04:07:17.744Z,67.47
2018-04-22T04:09:46.110Z,67.42
2018-04-22T04:12:14.505Z,69.04
2018-04-22T04:14:42.849Z,68.48
2018-04-22T04:17:11.189Z,68.09
2018-04-22T04:19:51.664Z,68.41
2018-04-22T04:22:31.752Z,68.14
2018-04-22T04:28:03.959Z,68.18
2018-04-22T04:30:32.299Z,68.26
2018-04-22T04:33:00.613Z,68.72
2018-04-22T04:35:28.951Z,67.54
2018-04-22T04:37:57.278Z,67.06
2018-04-22T04:40:25.690Z,66.63
2018-04-22T04:42:53.989Z,66.74
2018-04-22T04:45:22.404Z,65.33
2018-04-22T04:47:50.782Z,66.95
2018-04-22T04:50:19.090Z,65.94
2018-04-22T04:52:47.442Z,64.94
2018-04-22T04:55:15.754Z,65.66
2018-04-22T04:57:44.090Z,64.55
2018-04-22T05:00:12.442Z,65.68
2018-04-22T05:02:40.761Z,66.76
2018-04-22T05:05:09.072Z,66.22
2018-04-22T05:07:37.502Z,64.87
2018-04-22T05:10:05.873Z,64.17
2018-04-22T05:12:34.231Z,63.84
2018-04-22T05:15:02.537Z,63.62
2018-04-22T05:17:30.905Z,64.66
2018-04-22T05:19:59.225Z,63.58
2018-04-22T05:22:27.669Z,63.73
2018-04-22T05:24:56.050Z,63.36
2018-04-22T05:27:24.436Z,63.37
2018-04-22T05:29:52.772Z,63.51
2018-04-22T05:32:21.197Z,63.19
2018-04-22T05:34:49.530Z,63.16
2018-04-22T05:37:17.837Z,62.69
2018-04-22T05:39:46.226Z,62.48
2018-04-22T05:42:14.536Z,61.36
2018-04-22T05:44:42.869Z,61.52
2018-04-22T05:47:11.241Z,61.39
2018-04-22T05:49:39.731Z,61.33
2018-04-22T05:52:08.036Z,61.20
2018-04-22T05:54:36.385Z,61.00
2018-04-22T05:57:04.709Z,61.44
2018-04-22T05:59:33.140Z,60.76
2018-04-22T06:02:01.452Z,60.53
2018-04-22T06:04:29.812Z,60.97
2018-04-22T06:06:58.119Z,60.11
2018-04-22T06:09:26.452Z,59.85
2018-04-22T06:11:54.838Z,59.42
2018-04-22T06:14:23.256Z,59.48
2018-04-22T06:16:51.708Z,59.19
2018-04-22T06:19:20.020Z,59.11
2018-04-22T06:21:48.430Z,58.51
2018-04-22T06:24:16.740Z,57.42
2018-04-22T06:26:45.073Z,57.63
2018-04-22T06:29:13.481Z,57.13
2018-04-22T06:31:41.858Z,56.80
2018-04-22T06:34:10.237Z,56.22
2018-04-22T06:36:38.598Z,56.15
2018-04-22T06:39:06.980Z,56.86
2018-04-22T06:41:35.321Z,56.97
2018-04-22T06:44:03.633Z,56.43
2018-04-22T06:46:31.980Z,56.20
2018-04-22T06:49:00.288Z,55.65
2018-04-22T06:51:28.681Z,54.99
2018-04-22T06:53:57.015Z,54.82
2018-04-22T06:56:25.322Z,54.00
2018-04-22T06:58:53.656Z,54.39
2018-04-22T07:01:21.992Z,53.92
2018-04-22T07:03:50.389Z,53.74
2018-04-22T07:06:18.685Z,53.41
2018-04-22T07:08:47.118Z,53.34
2018-04-22T07:11:15.510Z,53.21
2018-04-22T07:13:43.843Z,52.85
2018-04-22T07:16:12.162Z,52.23
2018-04-22T07:18:40.537Z,52.12
2018-04-22T07:21:08.859Z,51.92
2018-04-22T07:23:37.196Z,51.27
2018-04-22T07:26:05.551Z,51.57
2018-04-22T07:28:33.904Z,50.22
2018-04-22T07:31:02.215Z,49.88
2018-04-22T07:33:30.595Z,49.01
2018-04-22T07:35:58.938Z,49.39
2018-04-22T07:38:27.247Z,48.91
2018-04-22T07:40:55.633Z,49.55
2018-04-22T07:43:23.941Z,48.24
2018-04-22T07:45:52.282Z,48.01
2018-04-22T07:48:20.593Z,47.65
2018-04-22T07:50:48.945Z,48.24
2018-04-22T07:53:17.317Z,47.87
2018-04-22T07:55:45.665Z,47.89
2018-04-22T07:58:14.090Z,47.29
2018-04-22T08:00:42.426Z,46.79
2018-04-22T08:03:10.839Z,46.35
2018-04-22T08:05:39.204Z,45.95
2018-04-22T08:08:07.525Z,46.02
2018-04-22T08:10:35.858Z,44.65
2018-04-22T08:13:04.246Z,45.15
2018-04-22T08:15:32.592Z,46.34
2018-04-22T08:18:00.998Z,45.06
2018-04-22T08:20:29.300Z,45.48
2018-04-22T08:22:57.704Z,44.95
2018-04-22T08:25:26.011Z,45.10
2018-04-22T08:27:54.412Z,44.61
2018-04-22T08:30:22.802Z,44.37
2018-04-22T08:32:51.174Z,43.89
2018-04-22T08:35:19.481Z,44.10
2018-04-22T08:37:47.923Z,44.12
2018-04-22T08:40:16.236Z,43.62
2018-04-22T08:42:44.566Z,43.99
2018-04-22T08:45:12.865Z,43.19
2018-04-22T08:47:41.661Z,43.25
2018-04-22T08:50:09.990Z,42.25
2018-04-22T08:52:38.354Z,42.72
2018-04-22T08:55:06.652Z,42.61
2018-04-22T08:57:35.001Z,42.26
2018-04-22T09:00:03.317Z,42.03
2018-04-22T09:02:31.702Z,42.25
2018-04-22T09:05:00.036Z,42.22
2018-04-22T09:07:28.400Z,43.03
2018-04-22T09:09:56.818Z,42.38
2018-04-22T09:12:25.257Z,42.73
2018-04-22T09:14:53.571Z,43.18
2018-04-22T09:17:21.893Z,42.35
2018-04-22T09:19:50.241Z,42.00
2018-04-22T09:22:18.562Z,41.49
2018-04-22T09:24:47.002Z,41.71
2018-04-22T09:27:15.308Z,41.37
2018-04-22T09:29:43.651Z,39.38
2018-04-22T09:32:11.970Z,39.07
2018-04-22T09:34:41.172Z,39.63
2018-04-22T09:37:09.552Z,40.06
2018-04-22T09:39:37.889Z,39.98
2018-04-22T09:42:07.014Z,40.05
2018-04-22T09:44:35.317Z,38.99
2018-04-22T09:47:03.673Z,38.09
2018-04-22T09:49:32.013Z,37.16
2018-04-22T09:52:00.356Z,37.46
2018-04-22T09:54:28.917Z,37.35
2018-04-22T09:56:57.249Z,36.60
2018-04-22T09:59:25.565Z,36.42
2018-04-22T10:01:53.903Z,37.42
2018-04-22T10:04:27.811Z,35.05
2018-04-22T10:06:56.127Z,36.59
2018-04-22T10:09:24.521Z,35.89
2018-04-22T10:11:52.872Z,37.06
2018-04-22T10:14:21.485Z,35.70
2018-04-22T10:16:49.863Z,35.58
2018-04-22T10:19:18.188Z,36.33
2018-04-22T10:21:46.564Z,35.81
2018-04-22T10:24:14.874Z,34.40
2018-04-22T10:26:43.224Z,35.12
2018-04-22T10:29:11.602Z,34.93
2018-04-22T10:31:39.972Z,34.83
2018-04-22T10:34:08.361Z,34.56
2018-04-22T10:36:36.712Z,34.62
2018-04-22T10:39:06.832Z,34.41
2018-04-22T10:41:35.148Z,33.84
2018-04-22T10:44:03.490Z,34.18
2018-04-22T10:46:31.806Z,34.13
2018-04-22T10:49:00.184Z,33.72
2018-04-22T10:51:28.549Z,33.55
2018-04-22T10:53:56.925Z,33.01
2018-04-22T10:56:25.309Z,32.55
2018-04-22T10:58:53.717Z,31.99
2018-04-22T11:01:22.012Z,32.23
2018-04-22T11:03:50.341Z,31.62
2018-04-22T11:06:18.723Z,30.93
2018-04-22T11:08:47.072Z,29.43
2018-04-22T11:11:15.466Z,30.36
2018-04-22T11:13:43.844Z,29.12
2018-04-22T11:16:12.224Z,28.36
2018-04-22T11:18:40.554Z,28.41
2018-04-22T11:21:09.265Z,29.05
2018-04-22T11:23:37.568Z,29.20
2018-04-22T11:26:05.952Z,27.68
2018-04-22T11:28:34.340Z,28.81
2018-04-22T11:31:02.679Z,27.33
2018-04-22T11:33:31.115Z,25.64
2018-04-22T11:35:59.439Z,29.40
2018-04-22T11:38:27.755Z,30.77
2018-04-22T11:40:56.093Z,26.98
2018-04-22T11:43:24.489Z,24.91
2018-04-22T11:45:52.887Z,23.41
2018-04-22T11:48:21.188Z,22.09
2018-04-22T11:50:49.532Z,22.14
2018-04-22T11:53:17.888Z,24.68
2018-04-22T11:55:46.287Z,21.79
2018-04-22T11:58:14.597Z,20.08
2018-04-22T12:00:42.970Z,20.77
2018-04-22T12:03:11.274Z,20.96
2018-04-22T12:05:39.686Z,20.92
2018-04-22T12:08:07.993Z,20.90
2018-04-22T12:10:36.329Z,20.82
2018-04-22T12:13:04.645Z,22.40
2018-04-22T12:15:32.969Z,23.30
2018-04-22T12:18:01.305Z,24.89
2018-04-22T12:20:29.686Z,22.33
2018-04-22T12:22:58.067Z,20.90
2018-04-22T12:25:26.681Z,18.60
2018-04-22T12:27:55.127Z,18.37
2018-04-22T12:30:23.461Z,18.60
2018-04-22T12:32:51.797Z,18.75
2018-04-22T12:35:20.108Z,17.39
2018-04-22T12:37:48.475Z,18.55
2018-04-22T12:40:16.797Z,18.06
2018-04-22T12:42:45.157Z,18.61
2018-04-22T12:45:13.542Z,17.16
2018-04-22T12:47:41.922Z,16.50
2018-04-22T12:50:10.294Z,16.92
2018-04-22T12:52:38.629Z,18.43
2018-04-22T12:55:07.105Z,17.05
2018-04-22T12:57:35.432Z,16.29
2018-04-22T13:00:03.786Z,18.09
2018-04-22T13:02:32.201Z,16.51
2018-04-22T13:05:00.505Z,14.66
2018-04-22T13:07:28.889Z,15.42
2018-04-22T13:09:57.193Z,15.49
2018-04-22T13:12:25.521Z,17.81
2018-04-22T13:14:53.861Z,19.39
2018-04-22T13:17:22.189Z,19.65
2018-04-22T13:19:50.632Z,20.58
2018-04-22T13:22:19.008Z,16.08
2018-04-22T13:24:47.348Z,17.96
2018-04-22T13:27:15.657Z,18.06
2018-04-22T13:29:44.016Z,17.70
2018-04-22T13:32:12.332Z,16.52
2018-04-22T13:34:40.833Z,15.19
2018-04-22T13:37:09.187Z,15.36
2018-04-22T13:39:37.471Z,15.82
2018-04-22T13:42:05.781Z,16.73
2018-04-22T13:44:34.203Z,19.04
2018-04-22T13:49:37.643Z,13.99
2018-04-22T13:52:06.010Z,12.67
2018-04-22T13:54:34.345Z,13.64
2018-04-22T13:57:02.689Z,12.97
2018-04-22T13:59:31.030Z,13.25
2018-04-22T14:01:59.353Z,11.80
2018-04-22T14:04:27.685Z,12.71
2018-04-22T14:06:56.002Z,12.06
2018-04-22T14:09:24.366Z,13.40
2018-04-22T14:11:52.707Z,11.81
2018-04-22T14:14:21.028Z,13.39
2018-04-22T14:16:49.358Z,12.12
2018-04-22T14:19:17.669Z,12.43
2018-04-22T14:21:46.021Z,12.51
2018-04-22T14:24:14.347Z,12.94
2018-04-22T14:26:42.678Z,12.10
2018-04-22T14:29:10.994Z,10.98
2018-04-22T14:31:39.380Z,10.57
2018-04-22T14:34:07.715Z,12.26
2018-04-22T14:36:36.093Z,12.35
2018-04-22T14:39:04.461Z,10.84
2018-04-22T14:41:32.789Z,12.14
2018-04-22T14:44:13.202Z,11.87
2018-04-22T14:46:41.549Z,14.21
2018-04-22T14:49:09.872Z,14.60
2018-04-22T14:51:38.272Z,13.68
2018-04-22T14:54:06.700Z,14.70
2018-04-22T14:56:35.095Z,13.58
2018-04-22T14:59:03.477Z,12.83
2018-04-22T15:01:31.888Z,12.97
2018-04-22T15:04:00.185Z,12.04
2018-04-22T15:06:28.509Z,12.69
2018-04-22T15:08:56.877Z,11.65
2018-04-22T15:11:25.255Z,11.17
2018-04-22T15:13:53.680Z,11.90
2018-04-22T15:16:22.028Z,12.87
2018-04-22T15:18:50.375Z,12.93
2018-04-22T15:21:18.689Z,12.32
2018-04-22T15:23:47.064Z,13.15
2018-04-22T15:26:15.471Z,13.30
2018-04-22T15:28:43.809Z,13.41
2018-04-22T15:31:12.136Z,12.03
2018-04-22T15:33:40.502Z,12.47
2018-04-22T15:36:08.828Z,12.32
2018-04-22T15:38:37.208Z,12.71
2018-04-22T15:41:05.530Z,13.24
2018-04-22T15:43:34.008Z,11.76
2018-04-22T15:46:02.355Z,13.46
2018-04-22T15:48:30.770Z,13.63
2018-04-22T15:50:59.134Z,13.87
2018-04-22T15:53:27.460Z,13.00
2018-04-22T15:55:55.860Z,12.51
2018-04-22T15:58:24.184Z,13.62
2018-04-22T16:00:52.560Z,13.60
2018-04-22T16:03:20.854Z,13.93
2018-04-22T16:05:49.253Z,13.94
